Terminal Aerodrome Forecast
Issued by NWS

Home | Current Version | Previous Version | Graphics & Text | Print | Product List | Glossary Off
Versions: 1 2 3 4 5 6 7 8 9 10 11 12 13 14 15 16 17 18 19

000
FTUS42 KMHX 270333 AAA
TAFISO
TAF AMD
KISO 270333Z 2704/2724 34005KT 5SM BR SCT010 OVC035
     FM270600 00000KT 3SM BR SCT004
     FM271500 36005KT P6SM SKC
      AMD LTD TO CLD VIS AND WIND=

USA.gov is the U.S. government's official web portal to all federal, state and local government web resources and services.